createdAt,value
2018-04-25T00:01:06.922Z,99.99
2018-04-25T00:02:28.748Z,99.99
2018-04-25T00:03:50.826Z,99.99
2018-04-25T00:05:12.640Z,99.99
2018-04-25T00:06:34.716Z,99.99
2018-04-25T00:07:56.501Z,99.99
2018-04-25T00:09:18.323Z,99.99
2018-04-25T00:10:39.868Z,99.99
2018-04-25T00:12:01.922Z,99.99
2018-04-25T00:13:23.991Z,99.99
2018-04-25T00:14:46.047Z,99.99
2018-04-25T00:16:07.925Z,99.99
2018-04-25T00:17:29.716Z,99.99
2018-04-25T00:18:51.781Z,99.99
2018-04-25T00:20:13.324Z,99.99
2018-04-25T00:21:35.122Z,99.99
2018-04-25T00:22:56.919Z,99.99
2018-04-25T00:24:18.744Z,99.99
2018-04-25T00:25:40.593Z,99.99
2018-04-25T00:27:02.420Z,99.99
2018-04-25T00:28:24.486Z,99.99
2018-04-25T00:29:46.557Z,99.99
2018-04-25T00:31:08.379Z,99.99
2018-04-25T00:32:30.174Z,99.99
2018-04-25T00:33:51.970Z,99.99
2018-04-25T00:35:13.779Z,99.99
2018-04-25T00:36:35.592Z,99.99
2018-04-25T00:37:57.384Z,99.99
2018-04-25T00:39:19.454Z,99.99
2018-04-25T00:40:40.732Z,99.99
2018-04-25T00:42:02.533Z,99.99
2018-04-25T00:43:24.092Z,99.99
2018-04-25T00:44:45.886Z,99.99
2018-04-25T00:46:07.687Z,99.99
2018-04-25T00:47:29.227Z,99.99
2018-04-25T00:48:50.748Z,99.99
2018-04-25T00:50:12.021Z,99.99
2018-04-25T00:51:34.088Z,99.99
2018-04-25T00:52:56.132Z,99.99
2018-04-25T00:54:17.945Z,99.99
2018-04-25T00:55:39.734Z,99.99
2018-04-25T00:57:01.530Z,99.99
2018-04-25T00:58:23.316Z,99.99
2018-04-25T00:59:45.379Z,99.99
2018-04-25T01:01:07.192Z,99.99
2018-04-25T01:02:29.266Z,99.99
2018-04-25T01:03:51.360Z,99.99
2018-04-25T01:05:13.175Z,99.99
2018-04-25T01:06:34.705Z,99.99
2018-04-25T01:07:56.772Z,99.99
2018-04-25T01:09:18.577Z,99.99
2018-04-25T01:10:40.630Z,99.99
2018-04-25T01:12:02.650Z,99.99
2018-04-25T01:13:24.473Z,99.99
2018-04-25T01:14:46.277Z,99.99
2018-04-25T01:16:08.342Z,99.99
2018-04-25T01:17:30.404Z,99.99
2018-04-25T01:18:52.463Z,99.99
2018-04-25T01:20:14.284Z,99.99
2018-04-25T01:21:36.087Z,99.99
2018-04-25T01:22:58.154Z,99.99
2018-04-25T01:24:19.959Z,99.99
2018-04-25T01:25:42.063Z,99.99
2018-04-25T01:27:03.591Z,99.99
2018-04-25T01:28:25.115Z,99.99
2018-04-25T01:29:46.922Z,99.99
2018-04-25T01:31:08.714Z,99.99
2018-04-25T01:32:30.788Z,99.99
2018-04-25T01:33:52.848Z,99.99
2018-04-25T01:35:14.412Z,99.99
2018-04-25T01:36:36.193Z,99.99
2018-04-25T01:37:57.988Z,99.99
2018-04-25T01:39:19.782Z,99.99
2018-04-25T01:40:41.594Z,99.99
2018-04-25T01:42:03.647Z,99.99
2018-04-25T01:43:25.443Z,99.99
2018-04-25T01:44:46.974Z,99.99
2018-04-25T01:46:09.055Z,99.99
2018-04-25T01:47:31.115Z,99.99
2018-04-25T01:48:52.900Z,99.99
2018-04-25T01:50:14.951Z,99.99
2018-04-25T01:51:36.491Z,99.99
2018-04-25T01:52:58.604Z,99.99
2018-04-25T01:54:20.659Z,99.99
2018-04-25T01:55:42.709Z,99.99
2018-04-25T01:57:04.501Z,99.99
2018-04-25T01:58:26.039Z,99.99
2018-04-25T01:59:48.139Z,99.99
2018-04-25T02:01:10.210Z,99.99
2018-04-25T02:02:32.007Z,99.99
2018-04-25T02:03:54.061Z,99.99
2018-04-25T02:05:16.125Z,99.99
2018-04-25T02:06:37.919Z,99.99
2018-04-25T02:07:59.969Z,99.99
2018-04-25T02:09:22.033Z,99.99
2018-04-25T02:10:43.829Z,99.99
2018-04-25T02:12:05.635Z,99.99
2018-04-25T02:13:27.711Z,99.99
2018-04-25T02:14:49.246Z,99.99
2018-04-25T02:16:11.041Z,99.99
2018-04-25T02:17:33.106Z,99.99
2018-04-25T02:18:55.177Z,99.99
2018-04-25T02:20:16.988Z,99.99
2018-04-25T02:21:38.778Z,99.99
2018-04-25T02:23:00.825Z,99.99
2018-04-25T02:24:22.884Z,99.99
2018-04-25T02:25:44.942Z,99.99
2018-04-25T02:27:06.739Z,99.99
2018-04-25T02:28:28.588Z,99.99
2018-04-25T02:29:50.125Z,99.99
2018-04-25T02:31:11.659Z,99.99
2018-04-25T02:32:33.726Z,99.99
2018-04-25T02:33:55.778Z,99.99
2018-04-25T02:35:17.894Z,99.99
2018-04-25T02:36:39.702Z,99.99
2018-04-25T02:38:01.234Z,99.99
2018-04-25T02:39:23.308Z,99.99
2018-04-25T02:40:45.125Z,99.99
2018-04-25T02:42:06.950Z,99.99
2018-04-25T02:43:28.746Z,99.99
2018-04-25T02:44:50.547Z,99.99
2018-04-25T02:46:12.131Z,99.99
2018-04-25T02:47:33.928Z,99.99
2018-04-25T02:48:55.724Z,99.99
2018-04-25T02:50:17.276Z,99.99
2018-04-25T02:51:39.338Z,99.99
2018-04-25T02:53:01.147Z,99.99
2018-04-25T02:54:23.223Z,99.99
2018-04-25T02:55:44.767Z,99.99
2018-04-25T02:57:06.297Z,99.99
2018-04-25T02:58:27.583Z,99.99
2018-04-25T02:59:49.391Z,99.99
2018-04-25T03:01:11.452Z,99.99
2018-04-25T03:02:33.513Z,99.99
2018-04-25T03:03:55.307Z,99.99
2018-04-25T03:05:17.096Z,99.99
2018-04-25T03:06:38.638Z,99.99
2018-04-25T03:08:00.723Z,99.99
2018-04-25T03:09:22.787Z,99.99
2018-04-25T03:10:44.845Z,99.99
2018-04-25T03:12:06.918Z,99.99
2018-04-25T03:13:28.473Z,99.99
2018-04-25T03:14:50.533Z,99.99
2018-04-25T03:16:12.328Z,99.99
2018-04-25T03:17:34.397Z,99.99
2018-04-25T03:18:56.460Z,99.99
2018-04-25T03:20:18.512Z,99.99
2018-04-25T03:21:40.067Z,99.99
2018-04-25T03:23:01.948Z,99.99
2018-04-25T03:24:23.480Z,99.99
2018-04-25T03:25:45.284Z,99.99
2018-04-25T03:27:07.348Z,99.99
2018-04-25T03:28:28.883Z,99.99
2018-04-25T03:29:50.932Z,99.99
2018-04-25T03:31:13.015Z,99.99
2018-04-25T03:32:35.072Z,99.99
2018-04-25T03:33:56.860Z,99.99
2018-04-25T03:35:18.127Z,99.99
2018-04-25T03:36:39.952Z,99.99
2018-04-25T03:38:01.750Z,99.99
2018-04-25T03:39:23.811Z,99.99
2018-04-25T03:40:45.085Z,99.99
2018-04-25T03:42:07.232Z,99.99
2018-04-25T03:43:28.501Z,99.99
2018-04-25T03:44:50.306Z,99.99
2018-04-25T03:46:12.371Z,99.99
2018-04-25T03:47:34.423Z,99.99
2018-04-25T03:48:56.490Z,99.99
2018-04-25T03:50:18.285Z,99.99
2018-04-25T03:51:40.089Z,99.99
2018-04-25T03:53:01.622Z,99.99
2018-04-25T03:54:23.427Z,99.99
2018-04-25T03:55:45.237Z,99.99
2018-04-25T03:57:07.048Z,99.99
2018-04-25T03:58:28.581Z,99.99
2018-04-25T03:59:50.370Z,99.99
2018-04-25T04:01:12.428Z,99.99
2018-04-25T04:02:34.227Z,99.99
2018-04-25T04:03:55.752Z,99.99
2018-04-25T04:05:17.288Z,99.99
2018-04-25T04:06:39.360Z,99.99
2018-04-25T04:08:00.893Z,99.99
2018-04-25T04:09:22.447Z,99.99
2018-04-25T04:10:43.998Z,99.99
2018-04-25T04:12:05.825Z,99.99
2018-04-25T04:13:28.067Z,99.99
2018-04-25T04:14:49.878Z,99.99
2018-04-25T04:16:11.684Z,99.99
2018-04-25T04:17:33.477Z,99.99
2018-04-25T04:18:55.548Z,99.99
2018-04-25T04:20:17.344Z,99.99
2018-04-25T04:21:39.409Z,99.99
2018-04-25T04:23:01.478Z,99.99
2018-04-25T04:24:23.296Z,99.99
2018-04-25T04:25:45.352Z,99.99
2018-04-25T04:27:07.418Z,99.99
2018-04-25T04:28:29.231Z,99.99
2018-04-25T04:29:51.293Z,99.99
2018-04-25T04:31:13.371Z,99.99
2018-04-25T04:32:35.451Z,99.99
2018-04-25T04:33:57.507Z,99.99
2018-04-25T04:35:19.316Z,99.99
2018-04-25T04:36:41.116Z,99.99
2018-04-25T04:38:02.658Z,99.99
2018-04-25T04:39:24.746Z,99.99
2018-04-25T04:40:46.809Z,99.99
2018-04-25T04:42:08.875Z,99.99
2018-04-25T04:43:30.933Z,99.99
2018-04-25T04:44:52.995Z,99.99
2018-04-25T04:46:15.053Z,99.99
2018-04-25T04:47:36.854Z,99.99
2018-04-25T04:48:58.395Z,99.99
2018-04-25T04:50:20.464Z,99.99
2018-04-25T04:51:41.993Z,99.99
2018-04-25T04:53:03.786Z,99.99
2018-04-25T04:54:25.316Z,99.99
2018-04-25T04:55:47.372Z,99.99
2018-04-25T04:57:09.166Z,99.99
2018-04-25T04:58:30.442Z,99.99
2018-04-25T04:59:52.380Z,99.99
2018-04-25T05:01:14.202Z,99.99
2018-04-25T05:02:36.022Z,99.99
2018-04-25T05:03:57.815Z,99.99
2018-04-25T05:05:19.623Z,99.99
2018-04-25T05:06:41.687Z,99.99
2018-04-25T05:08:03.493Z,99.99
2018-04-25T05:09:25.637Z,99.99
2018-04-25T05:10:47.174Z,99.99
2018-04-25T05:12:08.715Z,99.99
2018-04-25T05:13:30.242Z,99.99
2018-04-25T05:14:52.041Z,99.99
2018-04-25T05:16:14.110Z,99.99
2018-04-25T05:17:36.181Z,99.99
2018-04-25T05:18:57.975Z,99.99
2018-04-25T05:20:19.772Z,99.99
2018-04-25T05:21:41.845Z,99.99
2018-04-25T05:23:03.907Z,99.99
2018-04-25T05:24:26.083Z,99.99
2018-04-25T05:25:48.114Z,99.99
2018-04-25T05:27:09.921Z,99.99
2018-04-25T05:28:31.482Z,99.99
2018-04-25T05:29:53.546Z,99.99
2018-04-25T05:31:15.626Z,99.99
2018-04-25T05:32:37.422Z,99.99
2018-04-25T05:33:58.963Z,99.99
2018-04-25T05:35:21.017Z,99.99
2018-04-25T05:36:43.091Z,99.99
2018-04-25T05:38:04.894Z,99.99
2018-04-25T05:39:26.982Z,99.99
2018-04-25T05:40:49.049Z,99.99
2018-04-25T05:42:10.587Z,99.99
2018-04-25T05:43:32.650Z,99.99
2018-04-25T05:44:54.748Z,99.99
2018-04-25T05:46:16.824Z,99.99
2018-04-25T05:47:38.907Z,99.99
2018-04-25T05:49:00.961Z,99.99
2018-04-25T05:50:23.016Z,99.99
2018-04-25T05:51:45.170Z,99.99
2018-04-25T05:53:07.061Z,99.99
2018-04-25T05:54:28.858Z,99.99
2018-04-25T05:55:50.416Z,99.99
2018-04-25T05:57:12.478Z,99.99
2018-04-25T05:58:34.545Z,99.99
2018-04-25T05:59:56.607Z,99.99
2018-04-25T06:01:18.413Z,99.99
2018-04-25T06:02:40.484Z,99.99
2018-04-25T06:04:02.024Z,99.99
2018-04-25T06:05:24.094Z,99.99
2018-04-25T06:06:45.900Z,99.99
2018-04-25T06:08:08.052Z,99.99
2018-04-25T06:09:30.110Z,99.99
2018-04-25T06:10:52.184Z,99.99
2018-04-25T06:12:14.228Z,99.99
2018-04-25T06:13:35.565Z,99.99
2018-04-25T06:14:57.068Z,99.99
2018-04-25T06:16:18.617Z,99.99
2018-04-25T06:17:40.505Z,99.99
2018-04-25T06:19:02.561Z,99.99
2018-04-25T06:20:24.436Z,99.99
2018-04-25T06:21:46.497Z,99.99
2018-04-25T06:23:08.304Z,99.99
2018-04-25T06:24:30.371Z,99.99
2018-04-25T06:25:52.174Z,99.99
2018-04-25T06:27:14.246Z,99.99
2018-04-25T06:28:36.314Z,99.99
2018-04-25T06:29:57.875Z,99.99
2018-04-25T06:31:19.960Z,99.99
2018-04-25T06:32:42.036Z,94.43
2018-04-25T06:34:04.123Z,92.54
2018-04-25T06:35:25.988Z,94.33
2018-04-25T06:36:47.563Z,97.81
2018-04-25T06:38:09.646Z,99.99
2018-04-25T06:39:31.531Z,99.99
2018-04-25T06:40:53.630Z,99.99
2018-04-25T06:42:15.178Z,99.99
2018-04-25T06:43:36.721Z,99.99
2018-04-25T06:44:58.911Z,99.99
2018-04-25T06:46:21.029Z,99.99
2018-04-25T06:47:43.109Z,99.99
2018-04-25T06:49:04.933Z,99.99
2018-04-25T06:50:26.759Z,99.99
2018-04-25T06:51:48.565Z,99.99
2018-04-25T06:53:10.379Z,99.99
2018-04-25T06:54:31.916Z,99.99
2018-04-25T06:55:54.015Z,99.99
2018-04-25T06:57:15.564Z,99.99
2018-04-25T06:58:37.128Z,99.99
2018-04-25T06:59:59.180Z,99.99
2018-04-25T07:01:20.993Z,99.99
2018-04-25T07:02:43.091Z,99.99
2018-04-25T07:04:04.904Z,99.99
2018-04-25T07:05:26.743Z,99.99
2018-04-25T07:06:48.823Z,99.99
2018-04-25T07:08:10.727Z,99.99
2018-04-25T07:09:32.709Z,99.99
2018-04-25T07:10:54.515Z,99.99
2018-04-25T07:12:16.338Z,99.99
2018-04-25T07:13:38.163Z,96.22
2018-04-25T07:15:00.248Z,98
2018-04-25T07:16:22.060Z,98.72
2018-04-25T07:17:43.883Z,95.69
2018-04-25T07:19:06.050Z,96.51
2018-04-25T07:20:28.127Z,96.27
2018-04-25T07:21:49.972Z,95.21
2018-04-25T07:23:11.790Z,92.17
2018-04-25T07:24:33.853Z,92.51
2018-04-25T07:25:55.953Z,91.3
2018-04-25T07:27:18.050Z,88.59
2018-04-25T07:28:40.134Z,89.03
2018-04-25T07:30:01.949Z,89.75
2018-04-25T07:31:24.034Z,92.56
2018-04-25T07:32:46.134Z,94.54
2018-04-25T07:34:08.228Z,91.69
2018-04-25T07:35:30.383Z,88.31
2018-04-25T07:36:52.200Z,84.93
2018-04-25T07:38:14.292Z,85.44
2018-04-25T07:39:36.382Z,88.79
2018-04-25T07:40:58.469Z,93.91
2018-04-25T07:42:20.274Z,98.72
2018-04-25T07:43:42.083Z,99.99
2018-04-25T07:45:03.878Z,99.99
2018-04-25T07:46:25.686Z,99.99
2018-04-25T07:47:47.884Z,99.99
2018-04-25T07:49:09.713Z,99.99
2018-04-25T07:50:31.270Z,99.99
2018-04-25T07:51:52.831Z,99.99
2018-04-25T07:53:14.982Z,99.99
2018-04-25T07:54:37.053Z,99.99
2018-04-25T07:55:58.867Z,98.86
2018-04-25T07:57:20.926Z,99.99
2018-04-25T07:58:43.017Z,99.99
2018-04-25T08:00:05.093Z,99.99
2018-04-25T08:01:27.247Z,99.99
2018-04-25T08:02:49.064Z,99.99
2018-04-25T08:04:11.164Z,99.99
2018-04-25T08:05:33.227Z,99.99
2018-04-25T08:06:55.305Z,99.99
2018-04-25T08:08:16.579Z,99.99
2018-04-25T08:09:38.637Z,99.99
2018-04-25T08:11:00.184Z,99.99
2018-04-25T08:12:22.325Z,99.99
2018-04-25T08:13:44.180Z,99.99
2018-04-25T08:15:06.258Z,99.99
2018-04-25T08:16:28.325Z,99.99
2018-04-25T08:17:49.874Z,99.99
2018-04-25T08:19:11.871Z,99.99
2018-04-25T08:20:33.677Z,99.99
2018-04-25T08:21:55.489Z,99.99
2018-04-25T08:23:17.584Z,99.99
2018-04-25T08:24:39.410Z,99.99
2018-04-25T08:26:01.227Z,99.99
2018-04-25T08:27:23.052Z,99.99
2018-04-25T08:28:45.142Z,99.99
2018-04-25T08:30:07.290Z,99.99
2018-04-25T08:31:29.374Z,99.99
2018-04-25T08:32:50.928Z,99.99
2018-04-25T08:34:12.729Z,99.99
2018-04-25T08:35:34.655Z,99.99
2018-04-25T08:36:56.725Z,99.99
2018-04-25T08:38:18.795Z,99.99
2018-04-25T08:39:40.872Z,99.99
2018-04-25T08:41:02.950Z,99.99
2018-04-25T08:42:24.765Z,99.99
2018-04-25T08:43:46.304Z,99.99
2018-04-25T08:45:08.128Z,99.99
2018-04-25T08:46:30.291Z,99.99
2018-04-25T08:47:51.845Z,99.99
2018-04-25T08:49:13.907Z,99.99
2018-04-25T08:50:35.720Z,99.99
2018-04-25T08:51:57.535Z,99.99
2018-04-25T08:53:19.346Z,99.99
2018-04-25T08:54:41.417Z,99.99
2018-04-25T08:56:03.244Z,99.99
2018-04-25T08:57:25.070Z,99.99
2018-04-25T08:58:46.869Z,99.99
2018-04-25T09:00:08.931Z,99.99
2018-04-25T09:01:30.484Z,99.99
2018-04-25T09:02:52.316Z,99.99
2018-04-25T09:04:14.401Z,99.99
2018-04-25T09:05:36.499Z,99.99
2018-04-25T09:06:58.456Z,99.99
2018-04-25T09:08:20.278Z,99.99
2018-04-25T09:09:42.365Z,99.99
2018-04-25T09:11:03.954Z,99.99
2018-04-25T09:12:26.012Z,99.99
2018-04-25T09:13:48.069Z,99.99
2018-04-25T09:15:09.609Z,99.99
2018-04-25T09:16:31.478Z,99.99
2018-04-25T09:17:53.271Z,99.99
2018-04-25T09:19:15.326Z,99.99
2018-04-25T09:20:37.417Z,99.99
2018-04-25T09:21:59.558Z,99.99
2018-04-25T09:23:21.637Z,99.99
2018-04-25T09:24:43.767Z,99.99
2018-04-25T09:26:05.929Z,99.99
2018-04-25T09:27:28.013Z,99.99
2018-04-25T09:28:49.804Z,99.99
2018-04-25T09:30:11.899Z,99.99
2018-04-25T09:31:33.972Z,99.99
2018-04-25T09:32:55.779Z,99.99
2018-04-25T09:34:17.613Z,99.99
2018-04-25T09:35:39.840Z,99.99
2018-04-25T09:37:01.674Z,99.99
2018-04-25T09:38:23.213Z,99.99
2018-04-25T09:39:45.344Z,99.99
2018-04-25T09:41:07.164Z,99.99
2018-04-25T09:42:29.317Z,99.99
2018-04-25T09:43:51.135Z,99.99
2018-04-25T09:45:13.209Z,99.99
2018-04-25T09:46:35.273Z,99.99
2018-04-25T09:47:57.349Z,99.99
2018-04-25T09:49:19.157Z,99.99
2018-04-25T09:50:41.221Z,99.99
2018-04-25T09:52:03.017Z,99.99
2018-04-25T09:53:24.563Z,99.99
2018-04-25T09:54:46.128Z,99.99
2018-04-25T09:56:08.200Z,99.99
2018-04-25T09:57:30.371Z,99.99
2018-04-25T09:58:52.370Z,99.99
2018-04-25T10:00:13.920Z,99.99
2018-04-25T10:01:36.083Z,99.99
2018-04-25T10:02:57.894Z,99.99
2018-04-25T10:04:19.953Z,99.99
2018-04-25T10:05:42.012Z,99.99
2018-04-25T10:07:04.084Z,99.99
2018-04-25T10:08:25.883Z,99.99
2018-04-25T10:09:47.684Z,99.99
2018-04-25T10:11:09.768Z,99.99
2018-04-25T10:12:31.565Z,99.99
2018-04-25T10:13:53.638Z,99.99
2018-04-25T10:15:15.529Z,99.99
2018-04-25T10:16:37.756Z,99.99
2018-04-25T10:17:59.822Z,99.99
2018-04-25T10:19:21.347Z,99.99
2018-04-25T10:20:42.907Z,99.99
2018-04-25T10:22:04.742Z,99.99
2018-04-25T10:23:26.536Z,99.99
2018-04-25T10:24:48.615Z,99.99
2018-04-25T10:26:10.715Z,99.99
2018-04-25T10:27:32.785Z,99.99
2018-04-25T10:28:54.861Z,99.99
2018-04-25T10:30:16.927Z,99.99
2018-04-25T10:31:38.716Z,99.99
2018-04-25T10:33:00.779Z,99.99
2018-04-25T10:34:22.596Z,99.99
2018-04-25T10:35:44.676Z,99.99
2018-04-25T10:37:06.768Z,99.99
2018-04-25T10:38:28.843Z,99.99
2018-04-25T10:39:50.409Z,99.99
2018-04-25T10:41:12.473Z,99.99
2018-04-25T10:42:34.540Z,99.99
2018-04-25T10:43:56.339Z,99.99
2018-04-25T10:45:18.256Z,99.99
2018-04-25T10:46:40.368Z,99.99
2018-04-25T10:48:01.906Z,99.99
2018-04-25T10:49:24.005Z,99.99
2018-04-25T10:50:45.813Z,99.99
2018-04-25T10:52:07.884Z,99.99
2018-04-25T10:53:29.977Z,99.99
2018-04-25T10:54:51.770Z,99.99
2018-04-25T10:56:13.849Z,99.99
2018-04-25T10:57:35.663Z,99.99
2018-04-25T10:58:57.210Z,99.99
2018-04-25T11:00:19.032Z,99.99
2018-04-25T11:01:40.853Z,99.99
2018-04-25T11:03:02.672Z,99.99
2018-04-25T11:04:24.557Z,99.99
2018-04-25T11:05:46.913Z,99.99
2018-04-25T11:07:08.704Z,99.99
2018-04-25T11:08:30.541Z,99.99
2018-04-25T11:09:52.347Z,99.99
2018-04-25T11:11:14.408Z,99.99
2018-04-25T11:12:36.213Z,99.99
2018-04-25T11:13:58.267Z,99.99
2018-04-25T11:15:20.345Z,99.99
2018-04-25T11:16:42.421Z,99.99
2018-04-25T11:18:04.482Z,99.99
2018-04-25T11:19:26.538Z,99.99
2018-04-25T11:20:48.348Z,99.99
2018-04-25T11:22:09.871Z,99.99
2018-04-25T11:23:31.951Z,99.99
2018-04-25T11:24:53.492Z,99.99
2018-04-25T11:26:15.579Z,99.99
2018-04-25T11:27:37.444Z,99.99
2018-04-25T11:28:59.258Z,99.99
2018-04-25T11:30:21.335Z,99.99
2018-04-25T11:31:43.132Z,99.99
2018-04-25T11:33:05.428Z,99.99
2018-04-25T11:34:27.498Z,99.99
2018-04-25T11:35:49.564Z,99.99
2018-04-25T11:37:11.642Z,99.99
2018-04-25T11:38:33.470Z,99.99
2018-04-25T11:39:55.579Z,99.99
2018-04-25T11:41:17.657Z,99.99
2018-04-25T11:42:39.712Z,99.99
2018-04-25T11:44:01.789Z,99.99
2018-04-25T11:45:23.066Z,99.99
2018-04-25T11:46:44.882Z,99.99
2018-04-25T11:48:06.715Z,99.99
2018-04-25T11:49:28.789Z,99.99
2018-04-25T11:50:50.892Z,99.99
2018-04-25T11:52:12.697Z,99.99
2018-04-25T11:53:34.789Z,99.99
2018-04-25T11:54:56.603Z,99.99
2018-04-25T11:56:18.162Z,99.99
2018-04-25T11:57:39.960Z,99.99
2018-04-25T11:59:01.767Z,99.99
2018-04-25T12:00:23.843Z,99.99
2018-04-25T12:01:45.918Z,99.99
2018-04-25T12:03:07.749Z,99.99
2018-04-25T12:04:29.836Z,99.99
2018-04-25T12:05:51.937Z,99.99
2018-04-25T12:07:13.753Z,99.99
2018-04-25T12:08:35.558Z,99.99
2018-04-25T12:09:57.659Z,99.99
2018-04-25T12:11:19.457Z,99.99
2018-04-25T12:12:41.292Z,99.99
2018-04-25T12:14:03.091Z,99.99
2018-04-25T12:15:24.902Z,99.99
2018-04-25T12:16:46.988Z,99.99
2018-04-25T12:18:08.519Z,99.99
2018-04-25T12:19:30.064Z,99.99
2018-04-25T12:20:51.629Z,99.99
2018-04-25T12:22:13.442Z,99.99
2018-04-25T12:23:35.235Z,99.99
2018-04-25T12:24:57.056Z,99.99
2018-04-25T12:26:18.619Z,99.99
2018-04-25T12:27:40.185Z,99.99
2018-04-25T12:29:01.746Z,99.99
2018-04-25T12:30:23.567Z,99.99
2018-04-25T12:31:45.615Z,99.99
2018-04-25T12:33:07.687Z,99.99
2018-04-25T12:34:29.524Z,99.99
2018-04-25T12:35:51.497Z,99.99
2018-04-25T12:37:13.700Z,99.99
2018-04-25T12:38:35.545Z,99.99
2018-04-25T12:39:57.644Z,99.99
2018-04-25T12:41:19.223Z,99.99
2018-04-25T12:42:41.051Z,99.99
2018-04-25T12:44:02.902Z,99.99
2018-04-25T12:45:24.741Z,99.99
2018-04-25T12:46:46.821Z,99.99
2018-04-25T12:48:08.904Z,99.99
2018-04-25T12:49:30.983Z,99.99
2018-04-25T12:50:52.276Z,99.99
2018-04-25T12:52:14.093Z,99.99
2018-04-25T12:53:36.184Z,99.99
2018-04-25T12:54:58.303Z,99.99
2018-04-25T12:56:20.406Z,99.99
2018-04-25T12:57:42.489Z,99.99
2018-04-25T12:59:04.590Z,99.99
2018-04-25T13:00:26.393Z,99.99
2018-04-25T13:01:48.339Z,99.99
2018-04-25T13:03:10.200Z,99.99
2018-04-25T13:04:32.304Z,99.99
2018-04-25T13:05:53.879Z,99.99
2018-04-25T13:07:15.998Z,99.99
2018-04-25T13:08:37.827Z,99.99
2018-04-25T13:09:59.989Z,99.99
2018-04-25T13:11:22.079Z,99.99
2018-04-25T13:12:44.148Z,99.99
2018-04-25T13:14:05.703Z,99.99
2018-04-25T13:15:27.787Z,99.99
2018-04-25T13:16:49.883Z,99.99
2018-04-25T13:18:11.731Z,99.99
2018-04-25T13:19:33.835Z,99.99
2018-04-25T13:20:55.943Z,99.99
2018-04-25T13:22:18.032Z,99.99
2018-04-25T13:23:39.866Z,99.99
2018-04-25T13:25:01.952Z,99.99
2018-04-25T13:26:23.770Z,99.99
2018-04-25T13:27:45.606Z,99.99
2018-04-25T13:29:07.427Z,99.99
2018-04-25T13:30:29.533Z,99.99
2018-04-25T13:31:51.359Z,99.99
2018-04-25T13:33:13.209Z,99.99
2018-04-25T13:34:35.308Z,99.99
2018-04-25T13:35:57.155Z,99.99
2018-04-25T13:37:19.231Z,99.99
2018-04-25T13:38:41.073Z,99.99
2018-04-25T13:40:03.153Z,99.99
2018-04-25T13:41:25.052Z,99.99
2018-04-25T13:42:46.854Z,99.99
2018-04-25T13:44:08.167Z,99.99
2018-04-25T13:45:30.261Z,99.99
2018-04-25T13:46:51.604Z,99.99
2018-04-25T13:48:13.733Z,99.99
2018-04-25T13:49:35.839Z,99.99
2018-04-25T13:50:57.964Z,99.99
2018-04-25T13:52:19.822Z,99.99
2018-04-25T13:53:42.029Z,99.99
2018-04-25T13:55:03.845Z,99.99
2018-04-25T13:56:25.917Z,99.99
2018-04-25T13:57:47.458Z,99.99
2018-04-25T13:59:09.575Z,99.99
2018-04-25T14:00:31.658Z,99.99
2018-04-25T14:01:53.657Z,99.99
2018-04-25T14:03:15.724Z,99.99
2018-04-25T14:04:37.283Z,99.99
2018-04-25T14:05:59.373Z,99.99
2018-04-25T14:07:21.164Z,99.99
2018-04-25T14:08:43.220Z,99.99
2018-04-25T14:10:05.293Z,99.99
2018-04-25T14:11:27.095Z,99.99
2018-04-25T14:12:49.207Z,99.99
2018-04-25T14:14:11.283Z,99.99
2018-04-25T14:15:32.832Z,99.99
2018-04-25T14:16:54.658Z,99.99
2018-04-25T14:18:16.209Z,99.99
2018-04-25T14:19:38.041Z,99.99
2018-04-25T14:20:59.894Z,99.99
2018-04-25T14:22:21.963Z,99.99
2018-04-25T14:23:43.770Z,99.99
2018-04-25T14:25:05.328Z,99.99
2018-04-25T14:26:27.161Z,99.99
2018-04-25T14:27:48.722Z,99.99
2018-04-25T14:29:10.805Z,99.99
2018-04-25T14:30:32.926Z,99.99
2018-04-25T14:31:55.004Z,99.99
2018-04-25T14:33:17.134Z,99.99
2018-04-25T14:34:39.234Z,99.99
2018-04-25T14:36:01.343Z,99.99
2018-04-25T14:37:23.446Z,99.99
2018-04-25T14:38:45.522Z,99.99
2018-04-25T14:40:07.054Z,99.99
2018-04-25T14:41:28.362Z,99.99
2018-04-25T14:42:50.443Z,99.99
2018-04-25T14:44:12.541Z,99.99
2018-04-25T14:45:34.626Z,99.99
2018-04-25T14:46:56.197Z,99.99
2018-04-25T14:48:17.781Z,99.99
2018-04-25T14:49:39.802Z,99.99
2018-04-25T14:51:01.941Z,99.99
2018-04-25T14:52:24.071Z,99.99
2018-04-25T14:53:45.616Z,99.99
2018-04-25T14:55:07.708Z,99.99
2018-04-25T14:56:29.798Z,99.99
2018-04-25T14:57:51.632Z,99.99
2018-04-25T14:59:13.448Z,99.99
2018-04-25T15:00:35.561Z,99.99
2018-04-25T15:01:57.672Z,99.99
2018-04-25T15:03:19.497Z,99.99
2018-04-25T15:04:41.611Z,99.99
2018-04-25T15:06:03.731Z,99.99
2018-04-25T15:07:25.575Z,99.99
2018-04-25T15:08:47.682Z,99.99
2018-04-25T15:10:09.523Z,99.99
2018-04-25T15:11:31.608Z,99.99
2018-04-25T15:12:53.452Z,99.99
2018-04-25T15:14:15.557Z,99.99
2018-04-25T15:15:37.673Z,99.99
2018-04-25T15:16:59.753Z,99.99
2018-04-25T15:18:21.828Z,99.99
2018-04-25T15:19:43.737Z,99.99
2018-04-25T15:21:05.414Z,99.99
2018-04-25T15:22:27.526Z,99.99
2018-04-25T15:23:49.355Z,99.99
2018-04-25T15:25:11.473Z,99.99
2018-04-25T15:26:32.800Z,99.99
2018-04-25T15:27:54.640Z,99.99
2018-04-25T15:29:16.743Z,99.99
2018-04-25T15:30:38.858Z,99.99
2018-04-25T15:32:00.943Z,99.99
2018-04-25T15:33:23.100Z,99.99
2018-04-25T15:34:45.197Z,99.99
2018-04-25T15:36:07.031Z,99.99
2018-04-25T15:37:28.884Z,99.99
2018-04-25T15:38:51.051Z,99.99
2018-04-25T15:40:13.061Z,99.99
2018-04-25T15:41:35.258Z,99.99
2018-04-25T15:42:57.389Z,99.99
2018-04-25T15:44:19.222Z,99.99
2018-04-25T15:45:41.058Z,99.99
2018-04-25T15:47:02.625Z,99.99
2018-04-25T15:48:24.433Z,99.99
2018-04-25T15:49:46.522Z,99.99
2018-04-25T15:51:08.627Z,99.99
2018-04-25T15:52:30.445Z,99.99
2018-04-25T15:53:52.279Z,99.99
2018-04-25T15:55:14.150Z,99.99
2018-04-25T15:56:36.240Z,99.99
2018-04-25T15:57:58.328Z,99.99
2018-04-25T15:59:20.447Z,99.99
2018-04-25T16:00:42.327Z,99.99
2018-04-25T16:02:03.645Z,99.99
2018-04-25T16:03:25.738Z,99.99
2018-04-25T16:04:47.944Z,99.99
2018-04-25T16:06:09.748Z,99.99
2018-04-25T16:07:31.854Z,99.99
2018-04-25T16:08:53.927Z,99.99
2018-04-25T16:10:15.778Z,99.99
2018-04-25T16:11:37.896Z,99.99
2018-04-25T16:12:59.829Z,99.99
2018-04-25T16:14:21.975Z,99.99
2018-04-25T16:15:43.821Z,99.99
2018-04-25T16:17:05.776Z,99.99
2018-04-25T16:18:27.996Z,99.99
2018-04-25T16:19:50.129Z,99.99
2018-04-25T16:21:12.098Z,99.99
2018-04-25T16:22:34.370Z,99.99
2018-04-25T16:23:56.595Z,99.99
2018-04-25T16:25:18.469Z,99.99
2018-04-25T16:26:40.691Z,99.99
2018-04-25T16:28:02.799Z,99.99
2018-04-25T16:29:24.915Z,99.99
2018-04-25T16:30:47.253Z,99.99
2018-04-25T16:32:09.445Z,99.99
2018-04-25T16:33:31.560Z,99.99
2018-04-25T16:34:53.702Z,99.99
2018-04-25T16:36:15.720Z,99.99
2018-04-25T16:37:37.839Z,99.99
2018-04-25T16:38:59.966Z,99.99
2018-04-25T16:40:22.052Z,99.99
2018-04-25T16:41:43.940Z,99.99
2018-04-25T16:43:06.065Z,99.99
2018-04-25T16:44:27.906Z,99.99
2018-04-25T16:45:49.871Z,99.99
2018-04-25T16:47:11.685Z,99.99
2018-04-25T16:48:33.523Z,99.99
2018-04-25T16:49:55.364Z,99.99
2018-04-25T16:51:16.954Z,99.99
2018-04-25T16:52:38.781Z,99.99
2018-04-25T16:54:00.887Z,99.99
2018-04-25T16:55:23.025Z,99.99
2018-04-25T16:56:45.131Z,99.99
2018-04-25T16:58:07.252Z,99.99
2018-04-25T16:59:29.395Z,99.99
2018-04-25T17:00:51.238Z,99.99
2018-04-25T17:02:13.348Z,99.99
2018-04-25T17:03:35.464Z,99.99
2018-04-25T17:04:57.046Z,99.99
2018-04-25T17:06:18.881Z,99.99
2018-04-25T17:07:41.013Z,99.99
2018-04-25T17:09:02.862Z,99.99
2018-04-25T17:10:24.716Z,99.99
2018-04-25T17:11:46.829Z,99.99
2018-04-25T17:13:08.948Z,99.99
2018-04-25T17:14:31.110Z,99.99
2018-04-25T17:15:53.199Z,99.99
2018-04-25T17:17:15.317Z,99.99
2018-04-25T17:18:37.147Z,99.99
2018-04-25T17:19:59.009Z,99.99
2018-04-25T17:21:21.148Z,99.99
2018-04-25T17:22:43.015Z,99.99
2018-04-25T17:24:05.019Z,99.99
2018-04-25T17:25:27.141Z,99.99
2018-04-25T17:26:49.253Z,99.99
2018-04-25T17:28:11.386Z,99.99
2018-04-25T17:29:33.255Z,99.99
2018-04-25T17:30:55.115Z,99.99
2018-04-25T17:32:16.972Z,99.99
2018-04-25T17:33:39.061Z,99.99
2018-04-25T17:35:00.930Z,99.99